sensor_id;sensor_type;location;lat;lon;timestamp;P1;durP1;ratioP1;P2;durP2;ratioP2
59468;SDS011;45277;52.768;18.262;2023-04-06T00:00:28;52.30;;;20.60;;
59468;SDS011;45277;52.768;18.262;2023-04-06T00:02:17;42.70;;;20.05;;
59468;SDS011;45277;52.768;18.262;2023-04-06T00:03:49;40.83;;;18.40;;
59468;SDS011;45277;52.768;18.262;2023-04-06T00:05:20;42.85;;;19.60;;
59468;SDS011;45277;52.768;18.262;2023-04-06T00:06:53;41.30;;;19.02;;
59468;SDS011;45277;52.768;18.262;2023-04-06T00:08:25;35.03;;;19.15;;
59468;SDS011;45277;52.768;18.262;2023-04-06T00:09:57;39.15;;;18.55;;
59468;SDS011;45277;52.768;18.262;2023-04-06T00:11:28;34.28;;;17.33;;
59468;SDS011;45277;52.768;18.262;2023-04-06T00:13:00;38.38;;;18.05;;
59468;SDS011;45277;52.768;18.262;2023-04-06T00:14:31;39.95;;;19.08;;
59468;SDS011;45277;52.768;18.262;2023-04-06T00:16:02;34.78;;;18.20;;
59468;SDS011;45277;52.768;18.262;2023-04-06T00:17:36;42.78;;;19.15;;
59468;SDS011;45277;52.768;18.262;2023-04-06T00:19:07;39.10;;;18.58;;
59468;SDS011;45277;52.768;18.262;2023-04-06T00:20:38;36.83;;;18.77;;
59468;SDS011;45277;52.768;18.262;2023-04-06T00:22:10;32.53;;;18.05;;
59468;SDS011;45277;52.768;18.262;2023-04-06T00:23:41;34.42;;;17.42;;
59468;SDS011;45277;52.768;18.262;2023-04-06T00:25:12;35.00;;;16.67;;
59468;SDS011;45277;52.768;18.262;2023-04-06T00:26:46;32.45;;;17.70;;
59468;SDS011;45277;52.768;18.262;2023-04-06T00:28:17;37.17;;;18.83;;
59468;SDS011;45277;52.768;18.262;2023-04-06T00:29:52;34.65;;;17.55;;
59468;SDS011;45277;52.768;18.262;2023-04-06T00:31:23;35.97;;;17.02;;
59468;SDS011;45277;52.768;18.262;2023-04-06T00:32:55;37.28;;;17.77;;
59468;SDS011;45277;52.768;18.262;2023-04-06T00:34:26;38.05;;;18.52;;
59468;SDS011;45277;52.768;18.262;2023-04-06T00:35:58;33.03;;;18.45;;
59468;SDS011;45277;52.768;18.262;2023-04-06T00:37:29;42.60;;;19.48;;
59468;SDS011;45277;52.768;18.262;2023-04-06T00:39:01;32.08;;;17.75;;
59468;SDS011;45277;52.768;18.262;2023-04-06T00:40:32;34.67;;;18.45;;
59468;SDS011;45277;52.768;18.262;2023-04-06T00:42:11;32.72;;;17.85;;
59468;SDS011;45277;52.768;18.262;2023-04-06T00:43:46;37.40;;;17.35;;
59468;SDS011;45277;52.768;18.262;2023-04-06T00:45:18;35.50;;;18.15;;
59468;SDS011;45277;52.768;18.262;2023-04-06T00:46:49;33.75;;;17.38;;
59468;SDS011;45277;52.768;18.262;2023-04-06T00:48:20;36.10;;;18.88;;
59468;SDS011;45277;52.768;18.262;2023-04-06T00:49:55;38.88;;;18.42;;
59468;SDS011;45277;52.768;18.262;2023-04-06T00:51:26;36.83;;;18.42;;
59468;SDS011;45277;52.768;18.262;2023-04-06T00:52:58;38.50;;;19.08;;
59468;SDS011;45277;52.768;18.262;2023-04-06T00:54:30;38.53;;;18.63;;
59468;SDS011;45277;52.768;18.262;2023-04-06T00:56:01;38.45;;;19.17;;
59468;SDS011;45277;52.768;18.262;2023-04-06T00:57:33;48.63;;;21.38;;
59468;SDS011;45277;52.768;18.262;2023-04-06T00:59:05;36.70;;;20.27;;
59468;SDS011;45277;52.768;18.262;2023-04-06T01:00:36;40.72;;;20.30;;
59468;SDS011;45277;52.768;18.262;2023-04-06T01:02:08;41.17;;;19.83;;
59468;SDS011;45277;52.768;18.262;2023-04-06T01:03:40;41.38;;;20.00;;
59468;SDS011;45277;52.768;18.262;2023-04-06T01:05:12;37.60;;;19.23;;
59468;SDS011;45277;52.768;18.262;2023-04-06T01:06:44;40.03;;;20.63;;
59468;SDS011;45277;52.768;18.262;2023-04-06T01:08:16;42.67;;;20.08;;
59468;SDS011;45277;52.768;18.262;2023-04-06T01:09:47;44.03;;;20.50;;
59468;SDS011;45277;52.768;18.262;2023-04-06T01:11:18;40.58;;;20.40;;
59468;SDS011;45277;52.768;18.262;2023-04-06T01:12:50;39.35;;;20.33;;
59468;SDS011;45277;52.768;18.262;2023-04-06T01:14:22;38.22;;;20.33;;
59468;SDS011;45277;52.768;18.262;2023-04-06T01:15:54;41.35;;;20.55;;
59468;SDS011;45277;52.768;18.262;2023-04-06T01:17:26;42.97;;;21.05;;
59468;SDS011;45277;52.768;18.262;2023-04-06T01:18:59;37.13;;;19.98;;
59468;SDS011;45277;52.768;18.262;2023-04-06T01:20:30;38.20;;;19.83;;
59468;SDS011;45277;52.768;18.262;2023-04-06T01:22:02;38.78;;;19.08;;
59468;SDS011;45277;52.768;18.262;2023-04-06T01:23:33;40.22;;;19.65;;
59468;SDS011;45277;52.768;18.262;2023-04-06T01:25:05;38.35;;;19.48;;
59468;SDS011;45277;52.768;18.262;2023-04-06T01:26:37;42.50;;;20.92;;
59468;SDS011;45277;52.768;18.262;2023-04-06T01:28:09;35.13;;;19.35;;
59468;SDS011;45277;52.768;18.262;2023-04-06T01:29:40;46.08;;;19.33;;
59468;SDS011;45277;52.768;18.262;2023-04-06T01:31:12;39.67;;;19.02;;
59468;SDS011;45277;52.768;18.262;2023-04-06T01:32:43;38.95;;;19.63;;
59468;SDS011;45277;52.768;18.262;2023-04-06T01:34:15;36.85;;;19.38;;
59468;SDS011;45277;52.768;18.262;2023-04-06T01:35:47;47.47;;;20.23;;
59468;SDS011;45277;52.768;18.262;2023-04-06T01:37:18;36.25;;;18.70;;
59468;SDS011;45277;52.768;18.262;2023-04-06T01:38:49;36.50;;;19.13;;
59468;SDS011;45277;52.768;18.262;2023-04-06T01:40:21;47.05;;;20.40;;
59468;SDS011;45277;52.768;18.262;2023-04-06T01:41:53;39.80;;;19.70;;
59468;SDS011;45277;52.768;18.262;2023-04-06T01:43:24;39.17;;;19.45;;
59468;SDS011;45277;52.768;18.262;2023-04-06T01:44:56;45.13;;;20.00;;
59468;SDS011;45277;52.768;18.262;2023-04-06T01:46:27;40.03;;;20.38;;
59468;SDS011;45277;52.768;18.262;2023-04-06T01:47:58;38.83;;;19.02;;
59468;SDS011;45277;52.768;18.262;2023-04-06T01:49:30;31.42;;;18.52;;
59468;SDS011;45277;52.768;18.262;2023-04-06T01:51:01;43.30;;;20.20;;
59468;SDS011;45277;52.768;18.262;2023-04-06T01:52:33;37.10;;;18.20;;
59468;SDS011;45277;52.768;18.262;2023-04-06T01:54:04;38.03;;;20.08;;
59468;SDS011;45277;52.768;18.262;2023-04-06T01:55:36;37.05;;;19.58;;
59468;SDS011;45277;52.768;18.262;2023-04-06T01:57:07;37.45;;;19.85;;
59468;SDS011;45277;52.768;18.262;2023-04-06T01:58:39;37.92;;;18.95;;
59468;SDS011;45277;52.768;18.262;2023-04-06T02:00:10;44.58;;;19.98;;
59468;SDS011;45277;52.768;18.262;2023-04-06T02:01:42;41.75;;;19.55;;
59468;SDS011;45277;52.768;18.262;2023-04-06T02:03:14;34.05;;;18.45;;
59468;SDS011;45277;52.768;18.262;2023-04-06T02:04:45;36.88;;;18.75;;
59468;SDS011;45277;52.768;18.262;2023-04-06T02:06:16;39.13;;;18.35;;
59468;SDS011;45277;52.768;18.262;2023-04-06T02:07:48;33.80;;;17.70;;
59468;SDS011;45277;52.768;18.262;2023-04-06T02:09:19;37.58;;;19.17;;
59468;SDS011;45277;52.768;18.262;2023-04-06T02:10:50;36.60;;;18.67;;
59468;SDS011;45277;52.768;18.262;2023-04-06T02:12:23;35.72;;;18.13;;
59468;SDS011;45277;52.768;18.262;2023-04-06T02:13:55;39.00;;;19.27;;
59468;SDS011;45277;52.768;18.262;2023-04-06T02:15:26;36.10;;;18.63;;
59468;SDS011;45277;52.768;18.262;2023-04-06T02:16:58;40.58;;;19.13;;
59468;SDS011;45277;52.768;18.262;2023-04-06T02:18:30;39.95;;;20.13;;
59468;SDS011;45277;52.768;18.262;2023-04-06T02:20:02;42.58;;;19.48;;
59468;SDS011;45277;52.768;18.262;2023-04-06T02:21:33;38.10;;;20.52;;
59468;SDS011;45277;52.768;18.262;2023-04-06T02:23:05;44.75;;;20.48;;
59468;SDS011;45277;52.768;18.262;2023-04-06T02:24:36;39.15;;;20.23;;
59468;SDS011;45277;52.768;18.262;2023-04-06T02:26:07;39.30;;;19.60;;
59468;SDS011;45277;52.768;18.262;2023-04-06T02:27:39;39.75;;;18.85;;
59468;SDS011;45277;52.768;18.262;2023-04-06T02:29:10;40.50;;;20.25;;
59468;SDS011;45277;52.768;18.262;2023-04-06T02:30:42;42.30;;;20.13;;
59468;SDS011;45277;52.768;18.262;2023-04-06T02:32:13;42.72;;;19.10;;
59468;SDS011;45277;52.768;18.262;2023-04-06T02:33:44;39.53;;;20.17;;
59468;SDS011;45277;52.768;18.262;2023-04-06T02:35:16;39.80;;;19.55;;
59468;SDS011;45277;52.768;18.262;2023-04-06T02:36:47;36.85;;;19.88;;
59468;SDS011;45277;52.768;18.262;2023-04-06T02:38:18;40.15;;;19.50;;
59468;SDS011;45277;52.768;18.262;2023-04-06T02:39:50;43.63;;;20.45;;
59468;SDS011;45277;52.768;18.262;2023-04-06T02:41:21;43.88;;;20.75;;
59468;SDS011;45277;52.768;18.262;2023-04-06T02:42:52;35.70;;;19.52;;
59468;SDS011;45277;52.768;18.262;2023-04-06T02:44:24;41.38;;;20.40;;
59468;SDS011;45277;52.768;18.262;2023-04-06T02:45:55;47.80;;;20.33;;
59468;SDS011;45277;52.768;18.262;2023-04-06T02:47:26;45.08;;;21.40;;
59468;SDS011;45277;52.768;18.262;2023-04-06T02:48:58;41.15;;;19.98;;
59468;SDS011;45277;52.768;18.262;2023-04-06T02:50:30;54.53;;;22.30;;
59468;SDS011;45277;52.768;18.262;2023-04-06T02:52:02;48.25;;;21.70;;
59468;SDS011;45277;52.768;18.262;2023-04-06T02:53:34;48.45;;;22.10;;
59468;SDS011;45277;52.768;18.262;2023-04-06T02:55:05;53.30;;;23.13;;
59468;SDS011;45277;52.768;18.262;2023-04-06T02:56:38;60.40;;;23.70;;
59468;SDS011;45277;52.768;18.262;2023-04-06T02:58:09;66.72;;;26.05;;
59468;SDS011;45277;52.768;18.262;2023-04-06T02:59:41;58.50;;;24.77;;
59468;SDS011;45277;52.768;18.262;2023-04-06T03:01:12;62.08;;;25.35;;
59468;SDS011;45277;52.768;18.262;2023-04-06T03:02:44;63.10;;;24.67;;
59468;SDS011;45277;52.768;18.262;2023-04-06T03:04:15;64.85;;;24.13;;
59468;SDS011;45277;52.768;18.262;2023-04-06T03:05:46;50.13;;;23.10;;
59468;SDS011;45277;52.768;18.262;2023-04-06T03:07:18;44.30;;;20.85;;
59468;SDS011;45277;52.768;18.262;2023-04-06T03:08:49;45.75;;;20.05;;
59468;SDS011;45277;52.768;18.262;2023-04-06T03:10:21;43.05;;;19.88;;
59468;SDS011;45277;52.768;18.262;2023-04-06T03:11:52;36.22;;;18.13;;
59468;SDS011;45277;52.768;18.262;2023-04-06T03:13:23;39.85;;;18.65;;
59468;SDS011;45277;52.768;18.262;2023-04-06T03:14:55;35.53;;;19.10;;
59468;SDS011;45277;52.768;18.262;2023-04-06T03:16:26;40.40;;;18.65;;
59468;SDS011;45277;52.768;18.262;2023-04-06T03:17:58;36.95;;;17.65;;
59468;SDS011;45277;52.768;18.262;2023-04-06T03:19:29;32.45;;;17.20;;
59468;SDS011;45277;52.768;18.262;2023-04-06T03:21:00;34.33;;;17.08;;
59468;SDS011;45277;52.768;18.262;2023-04-06T03:22:32;35.85;;;17.75;;
59468;SDS011;45277;52.768;18.262;2023-04-06T03:24:03;35.90;;;18.20;;
59468;SDS011;45277;52.768;18.262;2023-04-06T03:25:36;38.08;;;17.77;;
59468;SDS011;45277;52.768;18.262;2023-04-06T03:27:07;35.08;;;17.88;;
59468;SDS011;45277;52.768;18.262;2023-04-06T03:28:38;34.10;;;18.10;;
59468;SDS011;45277;52.768;18.262;2023-04-06T03:30:10;32.17;;;16.98;;
59468;SDS011;45277;52.768;18.262;2023-04-06T03:31:41;35.45;;;17.55;;
59468;SDS011;45277;52.768;18.262;2023-04-06T03:33:13;34.97;;;18.23;;
59468;SDS011;45277;52.768;18.262;2023-04-06T03:34:44;34.97;;;17.58;;
59468;SDS011;45277;52.768;18.262;2023-04-06T03:36:15;33.60;;;17.73;;
59468;SDS011;45277;52.768;18.262;2023-04-06T03:37:47;35.35;;;16.90;;
59468;SDS011;45277;52.768;18.262;2023-04-06T03:39:18;29.02;;;15.90;;
59468;SDS011;45277;52.768;18.262;2023-04-06T03:40:50;34.13;;;17.80;;
59468;SDS011;45277;52.768;18.262;2023-04-06T03:42:21;35.80;;;17.30;;
59468;SDS011;45277;52.768;18.262;2023-04-06T03:43:53;29.15;;;16.05;;
59468;SDS011;45277;52.768;18.262;2023-04-06T03:45:24;31.13;;;16.15;;
59468;SDS011;45277;52.768;18.262;2023-04-06T03:46:56;35.85;;;17.10;;
59468;SDS011;45277;52.768;18.262;2023-04-06T03:48:27;34.25;;;16.85;;
59468;SDS011;45277;52.768;18.262;2023-04-06T03:49:59;31.63;;;16.17;;
59468;SDS011;45277;52.768;18.262;2023-04-06T03:51:30;30.98;;;15.70;;
59468;SDS011;45277;52.768;18.262;2023-04-06T03:53:02;35.13;;;17.25;;
59468;SDS011;45277;52.768;18.262;2023-04-06T03:54:33;37.28;;;17.85;;
59468;SDS011;45277;52.768;18.262;2023-04-06T03:56:04;33.08;;;16.85;;
59468;SDS011;45277;52.768;18.262;2023-04-06T03:57:36;35.08;;;16.40;;
59468;SDS011;45277;52.768;18.262;2023-04-06T03:59:08;28.90;;;15.82;;
59468;SDS011;45277;52.768;18.262;2023-04-06T04:00:39;30.88;;;16.52;;
59468;SDS011;45277;52.768;18.262;2023-04-06T04:02:10;38.20;;;17.35;;
59468;SDS011;45277;52.768;18.262;2023-04-06T04:03:42;33.65;;;16.20;;
59468;SDS011;45277;52.768;18.262;2023-04-06T04:05:13;32.00;;;16.60;;
59468;SDS011;45277;52.768;18.262;2023-04-06T04:06:45;33.00;;;15.98;;
59468;SDS011;45277;52.768;18.262;2023-04-06T04:08:16;29.88;;;15.65;;
59468;SDS011;45277;52.768;18.262;2023-04-06T04:09:47;33.15;;;16.17;;
59468;SDS011;45277;52.768;18.262;2023-04-06T04:11:19;31.15;;;16.75;;
59468;SDS011;45277;52.768;18.262;2023-04-06T04:12:51;32.67;;;16.92;;
59468;SDS011;45277;52.768;18.262;2023-04-06T04:14:22;34.47;;;17.70;;
59468;SDS011;45277;52.768;18.262;2023-04-06T04:15:53;31.58;;;16.90;;
59468;SDS011;45277;52.768;18.262;2023-04-06T04:17:25;29.33;;;16.35;;
59468;SDS011;45277;52.768;18.262;2023-04-06T04:18:56;35.35;;;16.55;;
59468;SDS011;45277;52.768;18.262;2023-04-06T04:20:29;31.90;;;15.95;;
59468;SDS011;45277;52.768;18.262;2023-04-06T04:22:00;32.65;;;16.20;;
59468;SDS011;45277;52.768;18.262;2023-04-06T04:23:34;31.75;;;16.08;;
59468;SDS011;45277;52.768;18.262;2023-04-06T04:25:06;29.95;;;16.65;;
59468;SDS011;45277;52.768;18.262;2023-04-06T04:26:38;32.40;;;16.90;;
59468;SDS011;45277;52.768;18.262;2023-04-06T04:28:10;30.10;;;16.13;;
59468;SDS011;45277;52.768;18.262;2023-04-06T04:29:42;27.38;;;16.33;;
59468;SDS011;45277;52.768;18.262;2023-04-06T04:31:14;43.25;;;18.33;;
59468;SDS011;45277;52.768;18.262;2023-04-06T04:32:47;33.92;;;17.67;;
59468;SDS011;45277;52.768;18.262;2023-04-06T04:34:19;32.28;;;18.42;;
59468;SDS011;45277;52.768;18.262;2023-04-06T04:35:51;39.88;;;18.67;;
59468;SDS011;45277;52.768;18.262;2023-04-06T04:37:23;40.05;;;19.35;;
59468;SDS011;45277;52.768;18.262;2023-04-06T04:38:54;37.40;;;18.23;;
59468;SDS011;45277;52.768;18.262;2023-04-06T04:40:26;40.65;;;18.38;;
59468;SDS011;45277;52.768;18.262;2023-04-06T04:41:57;42.65;;;18.45;;
59468;SDS011;45277;52.768;18.262;2023-04-06T04:43:29;41.80;;;18.70;;
59468;SDS011;45277;52.768;18.262;2023-04-06T04:45:00;36.60;;;18.08;;
59468;SDS011;45277;52.768;18.262;2023-04-06T04:46:31;38.28;;;18.15;;
59468;SDS011;45277;52.768;18.262;2023-04-06T04:48:03;34.08;;;17.00;;
59468;SDS011;45277;52.768;18.262;2023-04-06T04:49:35;37.28;;;17.38;;
59468;SDS011;45277;52.768;18.262;2023-04-06T04:51:06;30.15;;;16.25;;
59468;SDS011;45277;52.768;18.262;2023-04-06T04:52:38;32.20;;;17.38;;
59468;SDS011;45277;52.768;18.262;2023-04-06T04:54:09;37.50;;;17.80;;
59468;SDS011;45277;52.768;18.262;2023-04-06T04:55:41;31.25;;;16.33;;
59468;SDS011;45277;52.768;18.262;2023-04-06T04:57:12;39.00;;;16.48;;
59468;SDS011;45277;52.768;18.262;2023-04-06T04:58:44;36.78;;;16.80;;
59468;SDS011;45277;52.768;18.262;2023-04-06T05:00:15;28.60;;;16.05;;
59468;SDS011;45277;52.768;18.262;2023-04-06T05:01:47;32.03;;;16.25;;
59468;SDS011;45277;52.768;18.262;2023-04-06T05:03:22;32.22;;;17.60;;
59468;SDS011;45277;52.768;18.262;2023-04-06T05:04:55;40.83;;;17.63;;
59468;SDS011;45277;52.768;18.262;2023-04-06T05:06:26;53.78;;;21.33;;
59468;SDS011;45277;52.768;18.262;2023-04-06T05:07:58;50.28;;;21.85;;
59468;SDS011;45277;52.768;18.262;2023-04-06T05:09:29;48.38;;;19.20;;
59468;SDS011;45277;52.768;18.262;2023-04-06T05:11:03;46.85;;;18.83;;
59468;SDS011;45277;52.768;18.262;2023-04-06T05:12:35;34.33;;;17.63;;
59468;SDS011;45277;52.768;18.262;2023-04-06T05:14:06;46.38;;;20.63;;
59468;SDS011;45277;52.768;18.262;2023-04-06T05:15:38;40.45;;;20.27;;
59468;SDS011;45277;52.768;18.262;2023-04-06T05:17:10;43.97;;;20.67;;
59468;SDS011;45277;52.768;18.262;2023-04-06T05:18:42;48.28;;;20.27;;
59468;SDS011;45277;52.768;18.262;2023-04-06T05:20:14;50.65;;;19.50;;
59468;SDS011;45277;52.768;18.262;2023-04-06T05:21:45;42.90;;;18.90;;
59468;SDS011;45277;52.768;18.262;2023-04-06T05:23:17;44.60;;;19.90;;
59468;SDS011;45277;52.768;18.262;2023-04-06T05:24:49;45.20;;;20.25;;
59468;SDS011;45277;52.768;18.262;2023-04-06T05:26:20;44.20;;;19.98;;
59468;SDS011;45277;52.768;18.262;2023-04-06T05:27:51;46.40;;;18.92;;
59468;SDS011;45277;52.768;18.262;2023-04-06T05:29:23;47.17;;;19.73;;
59468;SDS011;45277;52.768;18.262;2023-04-06T05:30:55;47.67;;;19.95;;
59468;SDS011;45277;52.768;18.262;2023-04-06T05:32:27;46.55;;;18.98;;
59468;SDS011;45277;52.768;18.262;2023-04-06T05:33:59;32.92;;;16.58;;
59468;SDS011;45277;52.768;18.262;2023-04-06T05:35:30;40.58;;;18.23;;
59468;SDS011;45277;52.768;18.262;2023-04-06T05:37:02;41.70;;;18.35;;
59468;SDS011;45277;52.768;18.262;2023-04-06T05:38:33;40.30;;;17.15;;
59468;SDS011;45277;52.768;18.262;2023-04-06T05:40:05;40.78;;;17.02;;
59468;SDS011;45277;52.768;18.262;2023-04-06T05:41:37;43.10;;;18.58;;
59468;SDS011;45277;52.768;18.262;2023-04-06T05:43:08;52.58;;;19.42;;
59468;SDS011;45277;52.768;18.262;2023-04-06T05:44:40;51.03;;;20.10;;
59468;SDS011;45277;52.768;18.262;2023-04-06T05:46:12;57.10;;;22.70;;
59468;SDS011;45277;52.768;18.262;2023-04-06T05:47:43;38.85;;;19.00;;
59468;SDS011;45277;52.768;18.262;2023-04-06T05:49:15;31.23;;;15.63;;
59468;SDS011;45277;52.768;18.262;2023-04-06T05:50:49;30.80;;;14.90;;
59468;SDS011;45277;52.768;18.262;2023-04-06T05:52:21;30.02;;;15.02;;
59468;SDS011;45277;52.768;18.262;2023-04-06T05:53:53;29.20;;;14.30;;
59468;SDS011;45277;52.768;18.262;2023-04-06T05:55:24;31.10;;;15.43;;
59468;SDS011;45277;52.768;18.262;2023-04-06T05:56:56;34.03;;;14.98;;
59468;SDS011;45277;52.768;18.262;2023-04-06T05:58:27;32.45;;;16.50;;
59468;SDS011;45277;52.768;18.262;2023-04-06T05:59:59;35.38;;;16.77;;
59468;SDS011;45277;52.768;18.262;2023-04-06T06:01:31;29.88;;;14.75;;
59468;SDS011;45277;52.768;18.262;2023-04-06T06:03:04;30.73;;;15.80;;
59468;SDS011;45277;52.768;18.262;2023-04-06T06:04:36;31.80;;;15.60;;
59468;SDS011;45277;52.768;18.262;2023-04-06T06:06:08;33.20;;;15.88;;
59468;SDS011;45277;52.768;18.262;2023-04-06T06:07:39;33.25;;;15.40;;
59468;SDS011;45277;52.768;18.262;2023-04-06T06:09:11;33.40;;;17.05;;
59468;SDS011;45277;52.768;18.262;2023-04-06T06:10:42;36.85;;;17.55;;
59468;SDS011;45277;52.768;18.262;2023-04-06T06:12:14;36.13;;;18.27;;
59468;SDS011;45277;52.768;18.262;2023-04-06T06:13:45;39.95;;;17.95;;
59468;SDS011;45277;52.768;18.262;2023-04-06T06:15:17;42.78;;;19.70;;
59468;SDS011;45277;52.768;18.262;2023-04-06T06:16:49;54.67;;;18.60;;
59468;SDS011;45277;52.768;18.262;2023-04-06T06:18:20;39.65;;;17.88;;
59468;SDS011;45277;52.768;18.262;2023-04-06T06:19:52;41.10;;;19.13;;
59468;SDS011;45277;52.768;18.262;2023-04-06T06:21:23;38.55;;;18.67;;
59468;SDS011;45277;52.768;18.262;2023-04-06T06:22:55;48.38;;;19.05;;
59468;SDS011;45277;52.768;18.262;2023-04-06T06:24:27;56.72;;;24.63;;
59468;SDS011;45277;52.768;18.262;2023-04-06T06:25:58;66.50;;;30.27;;
59468;SDS011;45277;52.768;18.262;2023-04-06T06:27:31;63.53;;;27.42;;
59468;SDS011;45277;52.768;18.262;2023-04-06T06:29:03;42.95;;;20.20;;
59468;SDS011;45277;52.768;18.262;2023-04-06T06:30:35;29.30;;;14.07;;
59468;SDS011;45277;52.768;18.262;2023-04-06T06:32:07;26.17;;;12.70;;
59468;SDS011;45277;52.768;18.262;2023-04-06T06:33:41;25.35;;;12.25;;
59468;SDS011;45277;52.768;18.262;2023-04-06T06:35:13;25.88;;;13.00;;
59468;SDS011;45277;52.768;18.262;2023-04-06T06:36:44;25.35;;;12.77;;
59468;SDS011;45277;52.768;18.262;2023-04-06T06:38:16;41.08;;;15.48;;
59468;SDS011;45277;52.768;18.262;2023-04-06T06:39:48;37.65;;;16.40;;
59468;SDS011;45277;52.768;18.262;2023-04-06T06:41:19;36.70;;;15.15;;
59468;SDS011;45277;52.768;18.262;2023-04-06T06:42:51;33.70;;;16.20;;
59468;SDS011;45277;52.768;18.262;2023-04-06T06:44:22;31.02;;;14.50;;
59468;SDS011;45277;52.768;18.262;2023-04-06T06:45:54;22.65;;;11.43;;
59468;SDS011;45277;52.768;18.262;2023-04-06T06:47:25;26.13;;;12.48;;
59468;SDS011;45277;52.768;18.262;2023-04-06T06:48:58;19.65;;;10.13;;
59468;SDS011;45277;52.768;18.262;2023-04-06T06:50:29;21.67;;;12.82;;
59468;SDS011;45277;52.768;18.262;2023-04-06T06:52:02;24.10;;;12.20;;
59468;SDS011;45277;52.768;18.262;2023-04-06T06:53:34;17.55;;;8.65;;
59468;SDS011;45277;52.768;18.262;2023-04-06T06:55:06;18.45;;;9.23;;
59468;SDS011;45277;52.768;18.262;2023-04-06T06:56:38;14.18;;;7.07;;
59468;SDS011;45277;52.768;18.262;2023-04-06T06:58:10;14.45;;;8.25;;
59468;SDS011;45277;52.768;18.262;2023-04-06T06:59:42;14.82;;;7.90;;
59468;SDS011;45277;52.768;18.262;2023-04-06T07:01:14;14.18;;;7.93;;
59468;SDS011;45277;52.768;18.262;2023-04-06T07:02:46;20.30;;;10.77;;
59468;SDS011;45277;52.768;18.262;2023-04-06T07:04:18;21.27;;;10.60;;
59468;SDS011;45277;52.768;18.262;2023-04-06T07:05:50;23.20;;;10.63;;
59468;SDS011;45277;52.768;18.262;2023-04-06T07:07:25;20.15;;;9.40;;
59468;SDS011;45277;52.768;18.262;2023-04-06T07:08:56;15.32;;;7.45;;
59468;SDS011;45277;52.768;18.262;2023-04-06T07:10:28;16.35;;;8.52;;
59468;SDS011;45277;52.768;18.262;2023-04-06T07:12:00;15.60;;;8.25;;
59468;SDS011;45277;52.768;18.262;2023-04-06T07:13:32;14.10;;;7.07;;
59468;SDS011;45277;52.768;18.262;2023-04-06T07:15:04;15.38;;;8.93;;
59468;SDS011;45277;52.768;18.262;2023-04-06T07:16:36;16.90;;;9.70;;
59468;SDS011;45277;52.768;18.262;2023-04-06T07:18:07;13.75;;;6.55;;
59468;SDS011;45277;52.768;18.262;2023-04-06T07:19:39;23.27;;;9.82;;
59468;SDS011;45277;52.768;18.262;2023-04-06T07:21:11;13.77;;;7.00;;
59468;SDS011;45277;52.768;18.262;2023-04-06T07:22:42;17.27;;;8.82;;
59468;SDS011;45277;52.768;18.262;2023-04-06T07:24:17;19.00;;;8.85;;
59468;SDS011;45277;52.768;18.262;2023-04-06T07:25:48;17.83;;;8.50;;
59468;SDS011;45277;52.768;18.262;2023-04-06T07:27:21;12.00;;;6.68;;
59468;SDS011;45277;52.768;18.262;2023-04-06T07:28:53;17.58;;;8.35;;
59468;SDS011;45277;52.768;18.262;2023-04-06T07:30:24;17.65;;;9.70;;
59468;SDS011;45277;52.768;18.262;2023-04-06T07:31:58;14.43;;;8.35;;
59468;SDS011;45277;52.768;18.262;2023-04-06T07:33:30;11.43;;;6.68;;
59468;SDS011;45277;52.768;18.262;2023-04-06T07:35:02;14.05;;;6.78;;
59468;SDS011;45277;52.768;18.262;2023-04-06T07:36:33;13.68;;;7.22;;
59468;SDS011;45277;52.768;18.262;2023-04-06T07:38:05;10.35;;;6.03;;
59468;SDS011;45277;52.768;18.262;2023-04-06T07:39:36;9.43;;;6.25;;
59468;SDS011;45277;52.768;18.262;2023-04-06T07:41:08;12.30;;;6.75;;
59468;SDS011;45277;52.768;18.262;2023-04-06T07:42:40;13.00;;;5.70;;
59468;SDS011;45277;52.768;18.262;2023-04-06T07:44:12;10.57;;;6.40;;
59468;SDS011;45277;52.768;18.262;2023-04-06T07:45:43;13.98;;;5.90;;
59468;SDS011;45277;52.768;18.262;2023-04-06T07:47:15;8.80;;;5.05;;
59468;SDS011;45277;52.768;18.262;2023-04-06T07:48:47;9.73;;;5.78;;
59468;SDS011;45277;52.768;18.262;2023-04-06T07:50:18;13.07;;;5.88;;
59468;SDS011;45277;52.768;18.262;2023-04-06T07:51:50;12.77;;;6.28;;
59468;SDS011;45277;52.768;18.262;2023-04-06T07:53:22;9.57;;;5.10;;
59468;SDS011;45277;52.768;18.262;2023-04-06T07:54:54;14.68;;;5.57;;
59468;SDS011;45277;52.768;18.262;2023-04-06T07:56:26;10.63;;;5.45;;
59468;SDS011;45277;52.768;18.262;2023-04-06T07:57:57;10.48;;;5.47;;
59468;SDS011;45277;52.768;18.262;2023-04-06T07:59:28;8.00;;;5.07;;
59468;SDS011;45277;52.768;18.262;2023-04-06T08:01:00;6.65;;;4.13;;
59468;SDS011;45277;52.768;18.262;2023-04-06T08:02:32;7.78;;;5.43;;
59468;SDS011;45277;52.768;18.262;2023-04-06T08:04:03;8.18;;;4.90;;
59468;SDS011;45277;52.768;18.262;2023-04-06T08:05:35;9.23;;;4.55;;
59468;SDS011;45277;52.768;18.262;2023-04-06T08:07:06;9.75;;;4.95;;
59468;SDS011;45277;52.768;18.262;2023-04-06T08:08:38;8.48;;;4.95;;
59468;SDS011;45277;52.768;18.262;2023-04-06T08:10:10;6.13;;;4.05;;
59468;SDS011;45277;52.768;18.262;2023-04-06T08:11:41;6.28;;;3.47;;
59468;SDS011;45277;52.768;18.262;2023-04-06T08:13:13;6.47;;;3.92;;
59468;SDS011;45277;52.768;18.262;2023-04-06T08:14:45;8.07;;;3.63;;
59468;SDS011;45277;52.768;18.262;2023-04-06T08:16:16;3.85;;;2.78;;
59468;SDS011;45277;52.768;18.262;2023-04-06T08:17:47;2.35;;;2.17;;
59468;SDS011;45277;52.768;18.262;2023-04-06T08:19:19;5.97;;;3.50;;
59468;SDS011;45277;52.768;18.262;2023-04-06T08:20:50;5.80;;;3.20;;
59468;SDS011;45277;52.768;18.262;2023-04-06T08:22:22;10.90;;;3.80;;
59468;SDS011;45277;52.768;18.262;2023-04-06T08:23:54;20.27;;;5.00;;
59468;SDS011;45277;52.768;18.262;2023-04-06T08:25:25;21.65;;;4.57;;
59468;SDS011;45277;52.768;18.262;2023-04-06T08:26:56;9.52;;;4.20;;
59468;SDS011;45277;52.768;18.262;2023-04-06T08:28:28;6.35;;;3.53;;
59468;SDS011;45277;52.768;18.262;2023-04-06T08:30:00;4.25;;;3.40;;
59468;SDS011;45277;52.768;18.262;2023-04-06T08:31:32;5.43;;;3.38;;
59468;SDS011;45277;52.768;18.262;2023-04-06T08:33:07;5.38;;;3.63;;
59468;SDS011;45277;52.768;18.262;2023-04-06T08:34:38;5.15;;;3.33;;
59468;SDS011;45277;52.768;18.262;2023-04-06T08:36:10;5.63;;;3.55;;
59468;SDS011;45277;52.768;18.262;2023-04-06T08:37:44;7.88;;;4.05;;
59468;SDS011;45277;52.768;18.262;2023-04-06T08:39:15;7.43;;;4.45;;
59468;SDS011;45277;52.768;18.262;2023-04-06T08:40:47;8.63;;;4.00;;
59468;SDS011;45277;52.768;18.262;2023-04-06T08:42:21;9.07;;;4.53;;
59468;SDS011;45277;52.768;18.262;2023-04-06T08:45:28;9.82;;;4.75;;
59468;SDS011;45277;52.768;18.262;2023-04-06T08:47:01;8.50;;;4.95;;
59468;SDS011;45277;52.768;18.262;2023-04-06T08:48:36;9.35;;;4.55;;
59468;SDS011;45277;52.768;18.262;2023-04-06T08:50:09;7.68;;;4.78;;
59468;SDS011;45277;52.768;18.262;2023-04-06T08:51:42;11.15;;;5.63;;
59468;SDS011;45277;52.768;18.262;2023-04-06T08:53:13;8.55;;;4.93;;